Time;durP1;ratioP1;P1;durP2;ratioP2;P2;SDS_P1;SDS_P2;PMS_P1;PMS_P2;Temp;Humidity;BMP_temperature;BMP_pressure;BME280_temperature;BME280_humidity;BME280_pressure;Samples;Min_cycle;Max_cycle;Signal;HPM_P1;HPM_P2
2022/05/17 00:01:30;;;;;;;4.97;2.90;;;14.20;99.90;;;;;;4172691;28;20094;-68
2022/05/17 00:03:31;;;;;;;5.00;3.03;;;14.20;99.90;;;;;;4172144;28;20021;-68
2022/05/17 00:05:32;;;;;;;5.83;2.87;;;14.10;99.90;;;;;;4172727;28;20087;-67
2022/05/17 00:07:34;;;;;;;3.93;2.80;;;14.10;99.90;;;;;;4171972;28;20025;-67
2022/05/17 00:09:35;;;;;;;6.03;3.10;;;14.10;99.90;;;;;;4172398;28;20044;-68
2022/05/17 00:11:36;;;;;;;9.57;3.00;;;14.00;99.90;;;;;;4171307;28;20045;-68
2022/05/17 00:13:37;;;;;;;5.90;3.03;;;14.10;99.90;;;;;;4172677;28;20531;-67
2022/05/17 00:15:41;;;;;;;8.33;2.70;;;14.00;99.90;;;;;;4171819;28;20041;-68
2022/05/17 00:17:43;;;;;;;4.70;2.73;;;14.00;99.90;;;;;;4172627;28;20456;-67
2022/05/17 00:19:44;;;;;;;5.27;3.33;;;14.00;99.90;;;;;;4172278;28;20473;-68
2022/05/17 00:21:47;;;;;;;7.33;2.53;;;14.00;99.90;;;;;;4171979;28;20029;-67
2022/05/17 00:23:49;;;;;;;4.57;2.80;;;14.00;99.90;;;;;;4171740;28;20518;-67
2022/05/17 00:25:50;;;;;;;7.53;2.80;;;14.00;99.90;;;;;;4172400;28;20045;-68
2022/05/17 00:27:52;;;;;;;6.23;2.73;;;14.00;99.90;;;;;;4172083;28;20111;-68
2022/05/17 00:29:53;;;;;;;6.10;2.77;;;13.90;99.90;;;;;;4172763;28;20443;-69
2022/05/17 00:31:54;;;;;;;6.63;2.70;;;13.90;99.90;;;;;;4171659;28;20493;-68
2022/05/17 00:33:56;;;;;;;3.70;2.60;;;13.90;99.90;;;;;;4171625;28;20107;-67
2022/05/17 00:35:57;;;;;;;4.13;2.70;;;13.80;99.90;;;;;;4172579;28;20520;-68
2022/05/17 00:37:59;;;;;;;6.67;3.10;;;13.80;99.90;;;;;;4172243;28;20075;-67
2022/05/17 00:40:00;;;;;;;6.77;3.20;;;13.80;99.90;;;;;;4172475;28;20033;-67
2022/05/17 00:42:01;;;;;;;4.00;2.60;;;13.80;99.90;;;;;;4171650;28;20079;-67
2022/05/17 00:46:31;;;;;;;4.68;3.00;;;13.80;99.90;;;;;;4171703;28;20029;-67
2022/05/17 00:48:32;;;;;;;2.97;2.63;;;13.70;99.90;;;;;;4171749;28;20037;-68
2022/05/17 00:50:43;;;;;;;7.77;2.73;;;13.70;99.90;;;;;;4172098;28;20270;-68
2022/05/17 00:52:55;;;;;;;5.23;2.70;;;13.70;99.90;;;;;;4172494;28;20043;-67
2022/05/17 00:55:00;;;;;;;6.57;2.90;;;13.70;99.90;;;;;;4155154;28;20553;-67
2022/05/17 00:57:12;;;;;;;6.30;3.07;;;13.70;99.90;;;;;;4166150;28;20422;-68
2022/05/17 00:59:14;;;;;;;6.00;2.80;;;13.70;99.90;;;;;;4171791;28;20017;-67
2022/05/17 01:01:25;;;;;;;6.50;3.10;;;13.60;99.90;;;;;;4172698;28;20054;-68
2022/05/17 01:03:26;;;;;;;5.50;2.50;;;13.60;99.90;;;;;;4171536;28;20078;-67
2022/05/17 01:05:30;;;;;;;4.30;2.83;;;13.60;99.90;;;;;;4172365;28;20037;-68
2022/05/17 01:07:41;;;;;;;7.27;3.13;;;13.50;99.90;;;;;;4171590;28;20036;-68
2022/05/17 01:09:42;;;;;;;4.45;2.80;;;13.50;99.90;;;;;;4172314;28;20033;-68
2022/05/17 01:11:44;;;;;;;5.67;2.60;;;13.40;99.90;;;;;;4171299;28;20099;-68
2022/05/17 01:16:05;;;;;;;3.85;2.42;;;13.40;99.90;;;;;;4174738;28;20033;-69
2022/05/17 01:18:06;;;;;;;5.47;3.00;;;13.40;99.90;;;;;;4175052;28;20481;-68
2022/05/17 01:20:12;;;;;;;5.07;3.00;;;13.40;99.90;;;;;;4174691;28;20029;-68
2022/05/17 01:22:13;;;;;;;3.63;2.50;;;13.40;99.90;;;;;;4158683;28;20021;-68
2022/05/17 01:24:14;;;;;;;7.93;3.03;;;13.40;99.90;;;;;;4173493;28;20037;-68
2022/05/17 01:26:23;;;;;;;5.33;2.53;;;13.40;99.90;;;;;;4175128;28;20075;-68
2022/05/17 01:28:32;;;;;;;4.87;3.73;;;13.30;99.90;;;;;;4173813;28;20071;-67
2022/05/17 01:30:34;;;;;;;6.40;2.60;;;13.30;99.90;;;;;;4174871;28;20036;-67
2022/05/17 01:32:35;;;;;;;7.43;2.80;;;13.30;99.90;;;;;;4173710;28;20041;-68
2022/05/17 01:34:36;;;;;;;8.33;3.67;;;13.30;99.90;;;;;;4173508;28;20033;-68
2022/05/17 01:36:39;;;;;;;4.47;3.10;;;13.30;99.90;;;;;;4175017;28;20059;-67
2022/05/17 01:38:45;;;;;;;3.80;2.30;;;13.30;99.90;;;;;;4174526;28;20028;-66
2022/05/17 01:40:46;;;;;;;8.70;2.70;;;13.20;99.90;;;;;;4174600;28;20079;-67
2022/05/17 01:42:48;;;;;;;5.33;3.33;;;13.10;99.90;;;;;;4174344;28;20075;-67
2022/05/17 01:44:49;;;;;;;5.17;3.13;;;13.10;99.90;;;;;;4174685;28;20033;-67
2022/05/17 01:46:51;;;;;;;5.87;3.07;;;13.10;99.90;;;;;;4173772;28;20481;-67
2022/05/17 01:48:52;;;;;;;6.83;3.43;;;13.00;99.90;;;;;;4175269;28;20032;-67
2022/05/17 01:50:53;;;;;;;3.93;2.50;;;13.00;99.90;;;;;;4174320;28;20036;-68
2022/05/17 01:52:55;;;;;;;3.83;2.60;;;13.00;99.90;;;;;;4174837;28;20094;-67
2022/05/17 01:54:56;;;;;;;8.33;2.50;;;13.00;99.90;;;;;;4173957;28;20566;-67
2022/05/17 01:56:57;;;;;;;3.50;2.97;;;12.90;99.90;;;;;;4174297;28;20114;-67
2022/05/17 01:58:58;;;;;;;4.10;2.50;;;13.00;99.90;;;;;;4174973;28;20025;-67
2022/05/17 02:01:00;;;;;;;4.83;2.73;;;13.00;99.90;;;;;;4174134;28;20041;-68
2022/05/17 02:03:02;;;;;;;3.93;2.70;;;13.00;99.90;;;;;;4174206;28;20480;-67
2022/05/17 02:05:04;;;;;;;3.47;2.80;;;13.00;99.90;;;;;;4173042;28;20037;-67
2022/05/17 02:07:05;;;;;;;7.03;2.60;;;13.00;99.90;;;;;;4174295;28;20090;-67
2022/05/17 02:09:07;;;;;;;3.27;2.93;;;13.00;99.90;;;;;;4173898;28;20033;-69
2022/05/17 02:11:08;;;;;;;5.30;2.50;;;13.00;99.90;;;;;;4173950;28;20111;-68
2022/05/17 02:13:09;;;;;;;5.77;2.20;;;12.90;99.90;;;;;;4174251;28;20823;-68
2022/05/17 02:15:11;;;;;;;6.07;3.20;;;12.90;99.90;;;;;;4174690;28;20033;-67
2022/05/17 02:17:12;;;;;;;6.33;2.80;;;12.90;99.90;;;;;;4173631;28;20031;-67
2022/05/17 02:19:13;;;;;;;7.70;3.23;;;12.90;99.90;;;;;;4174856;28;20033;-68
2022/05/17 02:21:14;;;;;;;5.63;3.27;;;12.80;99.90;;;;;;4173741;28;20078;-67
2022/05/17 02:23:15;;;;;;;5.50;3.33;;;12.80;99.90;;;;;;4174593;28;20105;-68
2022/05/17 02:25:16;;;;;;;7.43;3.13;;;12.70;99.90;;;;;;4172668;28;20037;-68
2022/05/17 02:27:18;;;;;;;6.67;3.17;;;12.60;99.90;;;;;;4173071;28;20029;-69
2022/05/17 02:29:19;;;;;;;4.63;3.40;;;12.60;99.90;;;;;;4173637;28;20734;-68
2022/05/17 02:31:20;;;;;;;5.77;3.20;;;12.50;99.90;;;;;;4174037;28;20033;-69
2022/05/17 02:33:21;;;;;;;5.37;2.93;;;12.50;99.90;;;;;;4175237;28;20103;-68
2022/05/17 02:35:22;;;;;;;5.17;2.93;;;12.40;99.90;;;;;;4177188;28;20083;-69
2022/05/17 02:37:24;;;;;;;5.47;2.80;;;12.40;99.90;;;;;;4173964;28;20051;-67
2022/05/17 02:39:25;;;;;;;5.17;3.10;;;12.40;99.90;;;;;;4173618;28;20550;-69
2022/05/17 02:41:26;;;;;;;7.27;2.80;;;12.40;99.90;;;;;;4173640;28;20082;-68
2022/05/17 02:43:27;;;;;;;8.50;3.80;;;12.40;99.90;;;;;;4172201;28;20755;-68
2022/05/17 02:45:28;;;;;;;9.07;3.70;;;12.30;99.90;;;;;;4173421;28;20756;-68
2022/05/17 02:47:30;;;;;;;9.77;3.97;;;12.30;99.90;;;;;;4172801;28;20422;-68
2022/05/17 02:49:31;;;;;;;11.43;4.20;;;12.30;99.90;;;;;;4173349;28;20047;-68
2022/05/17 02:51:34;;;;;;;7.40;4.00;;;12.30;99.90;;;;;;4173240;28;20063;-68
2022/05/17 02:53:35;;;;;;;9.53;3.63;;;12.20;99.90;;;;;;4173844;28;20099;-70
2022/05/17 02:55:36;;;;;;;7.10;3.80;;;12.20;99.90;;;;;;4173010;28;20029;-68
2022/05/17 02:57:38;;;;;;;6.50;3.70;;;12.20;99.90;;;;;;4173001;28;20091;-68
2022/05/17 02:59:39;;;;;;;8.53;3.43;;;12.20;99.90;;;;;;4172663;28;20914;-67
2022/05/17 03:01:40;;;;;;;8.20;3.43;;;12.20;99.90;;;;;;4173287;28;20025;-68
2022/05/17 03:03:42;;;;;;;7.97;3.20;;;12.20;99.90;;;;;;4173600;28;20021;-68
2022/05/17 03:05:43;;;;;;;3.77;2.60;;;12.20;99.90;;;;;;4173152;28;20028;-68
2022/05/17 03:07:44;;;;;;;5.83;3.00;;;12.30;99.90;;;;;;4173223;28;20033;-67
2022/05/17 03:09:45;;;;;;;5.83;3.50;;;12.40;99.90;;;;;;4173273;28;20037;-67
2022/05/17 03:11:47;;;;;;;6.60;3.13;;;12.40;99.90;;;;;;4172753;28;20053;-68
2022/05/17 03:13:48;;;;;;;7.20;3.00;;;12.60;99.90;;;;;;4172751;28;20098;-68
2022/05/17 03:15:52;;;;;;;6.67;4.33;;;12.80;99.90;;;;;;4173580;28;20543;-69
2022/05/17 03:17:53;;;;;;;9.73;3.90;;;13.00;99.90;;;;;;4172868;28;20029;-69
2022/05/17 03:19:55;;;;;;;8.43;2.93;;;13.30;99.90;;;;;;4173974;28;20110;-69
2022/05/17 03:21:56;;;;;;;5.23;2.73;;;13.50;99.90;;;;;;4172608;28;20535;-69
2022/05/17 03:23:57;;;;;;;4.63;2.67;;;13.80;99.90;;;;;;4173292;28;20071;-68
2022/05/17 03:25:58;;;;;;;7.23;3.03;;;14.10;99.90;;;;;;4172229;28;20033;-68
2022/05/17 03:28:00;;;;;;;5.07;2.60;;;14.50;99.90;;;;;;4173364;28;20086;-68
2022/05/17 03:30:01;;;;;;;7.23;2.30;;;14.90;99.90;;;;;;4173244;28;20550;-68
2022/05/17 03:32:02;;;;;;;2.50;2.13;;;15.20;99.90;;;;;;4173399;28;20798;-69
2022/05/17 03:34:03;;;;;;;5.27;2.50;;;15.50;99.90;;;;;;4172614;28;20041;-68
2022/05/17 03:36:05;;;;;;;4.87;2.90;;;15.90;99.90;;;;;;4170960;28;20935;-68
2022/05/17 03:38:07;;;;;;;4.57;2.50;;;16.20;99.90;;;;;;4171182;28;20063;-69
2022/05/17 03:40:10;;;;;;;4.27;2.70;;;16.60;99.90;;;;;;4171889;28;20485;-69
2022/05/17 03:42:11;;;;;;;6.30;2.67;;;17.00;99.90;;;;;;4172356;28;20473;-68
2022/05/17 03:44:12;;;;;;;5.88;2.10;;;17.20;99.90;;;;;;4171964;28;20744;-68
2022/05/17 03:46:13;;;;;;;4.70;2.72;;;17.50;99.80;;;;;;4172238;28;20515;-68
2022/05/17 03:48:14;;;;;;;4.78;2.15;;;17.90;99.00;;;;;;4171728;28;20091;-69
2022/05/17 03:50:17;;;;;;;8.30;2.22;;;18.10;98.40;;;;;;4171901;28;20126;-68
2022/05/17 03:52:18;;;;;;;4.30;2.45;;;18.30;98.10;;;;;;4172083;28;20036;-69
2022/05/17 03:54:22;;;;;;;5.85;1.90;;;18.70;97.60;;;;;;4172454;28;20048;-68
2022/05/17 03:56:23;;;;;;;4.10;2.53;;;19.20;96.90;;;;;;4171472;28;20033;-68
2022/05/17 03:58:24;;;;;;;6.03;2.38;;;19.50;96.00;;;;;;4171965;28;20083;-69
2022/05/17 04:00:25;;;;;;;5.50;2.10;;;19.80;95.20;;;;;;4171332;28;20032;-68
2022/05/17 04:02:26;;;;;;;6.75;2.08;;;20.10;94.60;;;;;;4172360;28;20124;-68
2022/05/17 04:04:27;;;;;;;5.20;2.10;;;20.20;94.10;;;;;;4171876;28;20021;-68
2022/05/17 04:06:29;;;;;;;11.15;2.40;;;20.40;93.50;;;;;;4172292;28;20036;-68
2022/05/17 04:08:30;;;;;;;3.15;2.08;;;20.50;92.90;;;;;;4171540;28;20017;-70
2022/05/17 04:10:31;;;;;;;4.60;1.90;;;20.70;92.70;;;;;;4171433;28;20083;-70
2022/05/17 04:12:32;;;;;;;9.02;3.38;;;21.00;92.20;;;;;;4171718;28;20053;-67
2022/05/17 04:14:34;;;;;;;8.10;3.90;;;21.00;92.20;;;;;;4171413;28;20098;-69
2022/05/17 04:16:37;;;;;;;10.68;4.50;;;21.10;91.90;;;;;;4172306;28;20036;-69
2022/05/17 04:18:39;;;;;;;11.65;5.03;;;21.10;92.00;;;;;;4171193;28;20036;-70
2022/05/17 04:20:40;;;;;;;10.75;3.58;;;21.50;91.60;;;;;;4172122;28;20087;-68
2022/05/17 04:22:46;;;;;;;8.68;3.58;;;21.80;91.10;;;;;;4171747;28;20332;-70
2022/05/17 04:24:47;;;;;;;9.95;3.28;;;22.10;90.40;;;;;;4171218;28;20495;-69
2022/05/17 04:26:48;;;;;;;8.95;2.40;;;22.50;90.00;;;;;;4170132;28;21024;-70
2022/05/17 04:28:50;;;;;;;4.38;2.45;;;22.90;88.60;;;;;;4168013;28;20083;-69
2022/05/17 04:30:52;;;;;;;7.65;2.47;;;;;;;;;;4171066;28;20045;-68
2022/05/17 04:32:53;;;;;;;7.25;3.17;;;;;;;;;;4171621;28;20037;-68
2022/05/17 04:34:55;;;;;;;6.88;2.53;;;;;;;;;;4170038;28;20491;-68
2022/05/17 04:36:56;;;;;;;5.80;2.15;;;23.40;86.50;;;;;;4171856;28;20079;-69
2022/05/17 04:38:57;;;;;;;7.43;2.53;;;23.90;80.40;;;;;;4170657;28;20028;-69
2022/05/17 04:40:58;;;;;;;7.45;2.45;;;;;;;;;;4169968;28;20053;-68
2022/05/17 04:43:00;;;;;;;10.05;2.15;;;;;;;;;;4171233;28;20033;-69
2022/05/17 04:45:02;;;;;;;6.68;2.50;;;;;;;;;;4169952;28;20095;-68
2022/05/17 04:47:04;;;;;;;5.57;2.08;;;;;;;;;;4173317;28;20045;-68
2022/05/17 04:49:07;;;;;;;7.38;2.33;;;;;;;;;;4174308;28;20105;-69
2022/05/17 04:51:09;;;;;;;3.80;2.17;;;;;;;;;;4175281;28;20053;-69
2022/05/17 04:53:11;;;;;;;4.85;1.67;;;;;;;;;;4174271;28;20033;-69
2022/05/17 04:55:14;;;;;;;5.03;2.08;;;;;;;;;;4174574;28;20057;-69
2022/05/17 04:57:15;;;;;;;4.00;2.00;;;;;;;;;;4174518;28;20079;-70
2022/05/17 04:59:17;;;;;;;3.85;2.10;;;;;;;;;;4171835;28;20171;-69
2022/05/17 05:01:21;;;;;;;6.68;2.03;;;;;;;;;;4173580;28;20021;-69
2022/05/17 05:03:22;;;;;;;6.70;2.13;;;;;;;;;;4175169;28;20083;-69
2022/05/17 05:05:24;;;;;;;6.53;2.17;;;;;;;;;;4157877;28;20788;-68
2022/05/17 05:07:25;;;;;;;5.13;2.10;;;;;;;;;;4170125;28;20033;-68
2022/05/17 05:09:27;;;;;;;8.40;1.88;;;;;;;;;;4172825;28;20087;-67
2022/05/17 05:11:28;;;;;;;4.00;1.92;;;;;;;;;;4174341;28;20066;-66
2022/05/17 05:13:30;;;;;;;10.52;2.40;;;;;;;;;;4174105;28;20526;-69
2022/05/17 05:15:32;;;;;;;4.82;1.67;;;;;;;;;;4174023;28;20045;-68
2022/05/17 05:17:34;;;;;;;3.67;1.65;;;;;;;;;;4174495;28;20103;-68
2022/05/17 05:19:36;;;;;;;7.95;2.28;;;;;;;;;;4174244;28;20036;-68
2022/05/17 05:21:37;;;;;;;9.23;1.83;;;;;;;;;;4174878;28;20059;-68
2022/05/17 05:23:40;;;;;;;6.35;1.95;;;;;;;;;;4174312;28;20489;-69
2022/05/17 05:25:42;;;;;;;3.30;1.67;;;;;;;;;;4174495;28;20074;-68
2022/05/17 05:27:43;;;;;;;4.45;1.75;;;;;;;;;;4173981;28;20110;-68
2022/05/17 05:29:44;;;;;;;2.42;1.50;;;;;;;;;;4174987;28;20029;-69
2022/05/17 05:31:46;;;;;;;2.95;1.83;;;;;;;;;;4173818;28;20408;-68
2022/05/17 05:33:47;;;;;;;4.70;1.60;;;;;;;;;;4175038;28;20461;-68
2022/05/17 05:35:49;;;;;;;6.20;1.85;;;;;;;;;;4173719;28;20087;-69
2022/05/17 05:37:50;;;;;;;4.35;1.77;;;;;;;;;;4174411;28;20029;-69
2022/05/17 05:39:51;;;;;;;4.30;1.77;;;;;;;;;;4173889;28;20511;-68
2022/05/17 05:41:53;;;;;;;5.43;2.05;;;;;;;;;;4174427;28;20118;-69
2022/05/17 05:43:55;;;;;;;7.45;3.05;;;;;;;;;;4174019;28;20037;-68
2022/05/17 05:45:56;;;;;;;8.88;4.25;;;23.80;80.60;;;;;;4174315;28;20017;-69
2022/05/17 05:47:57;;;;;;;11.02;3.85;;;24.70;67.80;;;;;;4174170;28;20053;-68
2022/05/17 05:49:58;;;;;;;10.80;3.03;;;23.40;70.10;;;;;;4172972;28;20520;-70
2022/05/17 05:51:59;;;;;;;9.75;3.90;;;22.50;71.80;;;;;;4174386;28;20167;-68
2022/05/17 05:54:00;;;;;;;10.10;3.75;;;21.80;73.50;;;;;;4173887;28;20103;-68
2022/05/17 05:56:01;;;;;;;6.03;3.60;;;21.10;75.30;;;;;;4173304;28;20099;-68
2022/05/17 05:58:04;;;;;;;9.02;3.40;;;20.70;76.30;;;;;;4173545;28;20102;-68
2022/05/17 06:00:06;;;;;;;12.18;3.60;;;20.60;77.00;;;;;;4174615;28;20130;-68
2022/05/17 06:02:09;;;;;;;10.23;4.28;;;20.50;77.20;;;;;;4173179;28;20021;-68
2022/05/17 06:04:10;;;;;;;12.10;4.32;;;20.60;77.20;;;;;;4174606;28;20099;-68
2022/05/17 06:06:11;;;;;;;10.60;3.78;;;20.50;77.90;;;;;;4173676;28;20041;-68
2022/05/17 06:08:13;;;;;;;9.95;3.70;;;20.50;78.70;;;;;;4174179;28;20040;-68
2022/05/17 06:10:16;;;;;;;10.68;3.63;;;20.60;78.20;;;;;;4172760;28;20037;-68
2022/05/17 06:12:17;;;;;;;9.70;3.92;;;20.50;78.60;;;;;;4173904;28;20037;-68
2022/05/17 06:14:20;;;;;;;11.95;4.03;;;20.70;78.80;;;;;;4173519;28;20067;-68
2022/05/17 06:16:21;;;;;;;6.18;4.15;;;20.70;79.20;;;;;;4174059;28;20033;-68
2022/05/17 06:18:23;;;;;;;9.00;3.80;;;20.40;80.20;;;;;;4173672;28;20086;-68
2022/05/17 06:20:24;;;;;;;13.70;3.92;;;20.10;81.20;;;;;;4173448;28;20033;-68
2022/05/17 06:22:26;;;;;;;10.32;3.83;;;20.10;81.20;;;;;;4174303;28;20099;-67
2022/05/17 06:24:27;;;;;;;5.68;3.08;;;19.90;81.70;;;;;;4173300;28;20037;-68
2022/05/17 06:26:28;;;;;;;4.28;2.60;;;19.90;80.90;;;;;;4173922;28;20883;-67
2022/05/17 06:28:29;;;;;;;5.95;3.10;;;19.90;80.10;;;;;;4173199;28;20098;-68
2022/05/17 06:30:31;;;;;;;7.57;3.55;;;20.20;79.50;;;;;;4174400;28;20037;-68
2022/05/17 06:32:33;;;;;;;5.63;2.38;;;20.40;78.70;;;;;;4173422;28;20037;-67
2022/05/17 06:34:34;;;;;;;5.82;2.50;;;20.40;78.40;;;;;;4173996;28;20238;-68
2022/05/17 06:36:35;;;;;;;7.75;2.80;;;20.10;79.20;;;;;;4172922;28;20049;-68
2022/05/17 06:38:37;;;;;;;5.40;2.30;;;19.90;81.20;;;;;;4174058;28;20037;-67
2022/05/17 06:40:38;;;;;;;6.22;3.40;;;19.60;81.60;;;;;;4172478;28;20499;-68
2022/05/17 06:42:40;;;;;;;4.95;2.30;;;19.50;82.80;;;;;;4173743;28;20572;-68
2022/05/17 06:44:41;;;;;;;5.90;2.60;;;19.50;82.60;;;;;;4172688;28;20025;-68
2022/05/17 06:46:42;;;;;;;5.85;2.17;;;19.40;83.00;;;;;;4173193;28;20037;-68
2022/05/17 06:48:43;;;;;;;10.35;2.53;;;19.40;83.70;;;;;;4172589;28;20428;-68
2022/05/17 06:50:44;;;;;;;6.50;2.88;;;19.30;84.00;;;;;;4172886;28;20049;-68
2022/05/17 06:52:45;;;;;;;4.75;2.85;;;19.50;84.20;;;;;;4173028;28;20086;-67
2022/05/17 06:54:47;;;;;;;8.45;2.92;;;19.60;84.00;;;;;;4173071;28;20045;-68
2022/05/17 06:56:48;;;;;;;4.28;2.60;;;19.80;84.20;;;;;;4172774;28;20814;-68
2022/05/17 06:58:49;;;;;;;3.85;3.05;;;19.90;83.90;;;;;;4172820;28;20106;-69
2022/05/17 07:00:50;;;;;;;4.38;3.03;;;20.00;84.00;;;;;;4173651;28;20037;-68
2022/05/17 07:02:51;;;;;;;6.22;2.58;;;20.10;84.30;;;;;;4172610;28;20083;-67
2022/05/17 07:04:53;;;;;;;8.55;3.05;;;20.20;84.70;;;;;;4171712;28;20456;-68
2022/05/17 07:06:57;;;;;;;4.72;2.72;;;20.40;84.80;;;;;;4172878;28;20154;-69
2022/05/17 07:08:58;;;;;;;3.40;2.50;;;20.60;84.40;;;;;;4173809;28;20465;-68
2022/05/17 07:13:19;;;;;;;8.98;3.20;;;20.80;84.20;;;;;;4173142;28;20029;-69
2022/05/17 07:15:20;;;;;;;6.28;3.50;;;20.80;84.70;;;;;;4172169;28;20048;-69
2022/05/17 07:17:22;;;;;;;7.00;3.10;;;20.70;85.10;;;;;;4173309;28;20036;-69
2022/05/17 07:19:24;;;;;;;7.18;3.22;;;20.80;85.40;;;;;;4172620;28;20516;-69
2022/05/17 07:21:26;;;;;;;5.80;2.80;;;20.90;85.50;;;;;;4172824;28;20740;-69
2022/05/17 07:23:27;;;;;;;6.53;3.17;;;21.20;85.00;;;;;;4172469;28;20090;-69
2022/05/17 07:25:28;;;;;;;6.35;3.45;;;21.40;84.70;;;;;;4172870;28;20946;-69
2022/05/17 07:27:29;;;;;;;6.15;2.90;;;21.40;85.70;;;;;;4172624;28;20884;-70
2022/05/17 07:29:30;;;;;;;7.32;3.33;;;21.50;85.00;;;;;;4172384;28;20033;-69
2022/05/17 07:31:32;;;;;;;6.38;3.63;;;21.80;85.00;;;;;;4172821;28;20095;-69
2022/05/17 07:33:33;;;;;;;6.88;2.95;;;21.90;84.90;;;;;;4172230;28;20102;-70
2022/05/17 07:35:34;;;;;;;6.15;3.85;;;22.20;84.70;;;;;;4172617;28;20513;-67
2022/05/17 07:37:36;;;;;;;6.05;3.58;;;22.00;85.10;;;;;;4171626;28;20084;-67
2022/05/17 07:39:37;;;;;;;9.65;3.83;;;21.80;85.70;;;;;;4172534;28;20025;-69
2022/05/17 07:41:40;;;;;;;7.50;3.30;;;21.70;86.60;;;;;;4171837;28;20366;-68
2022/05/17 07:43:41;;;;;;;6.88;3.30;;;21.60;87.10;;;;;;4172668;28;20044;-68
2022/05/17 07:45:44;;;;;;;8.90;2.97;;;21.60;87.30;;;;;;4171492;28;20469;-69
2022/05/17 07:47:46;;;;;;;8.85;6.45;;;21.80;87.30;;;;;;4172489;28;20439;-69
2022/05/17 07:49:47;;;;;;;11.13;3.17;;;21.80;87.60;;;;;;4171415;28;20036;-71
2022/05/17 07:51:48;;;;;;;5.32;2.53;;;21.90;87.80;;;;;;4172614;28;20090;-69
2022/05/17 07:53:49;;;;;;;7.28;2.45;;;21.80;87.90;;;;;;4171656;28;20044;-69
2022/05/17 07:55:51;;;;;;;3.55;2.53;;;22.10;88.00;;;;;;4172061;28;20053;-69
2022/05/17 07:57:52;;;;;;;9.80;3.35;;;22.10;87.70;;;;;;4172297;28;20695;-68
2022/05/17 07:59:53;;;;;;;5.63;2.78;;;22.10;87.90;;;;;;4172673;28;20025;-68
2022/05/17 08:01:54;;;;;;;13.20;2.80;;;21.90;88.40;;;;;;4172257;28;20441;-68
2022/05/17 08:03:55;;;;;;;5.15;3.05;;;21.90;88.90;;;;;;4171897;28;20029;-69
2022/05/17 08:05:57;;;;;;;5.80;2.67;;;21.80;89.30;;;;;;4170337;28;20076;-69
2022/05/17 08:07:58;;;;;;;5.57;3.03;;;21.80;89.30;;;;;;4171733;28;20087;-69
2022/05/17 08:09:59;;;;;;;8.88;3.05;;;21.80;89.80;;;;;;4171845;28;20066;-68
2022/05/17 08:12:01;;;;;;;7.03;3.05;;;21.90;89.70;;;;;;4171175;28;20041;-68
2022/05/17 08:14:02;;;;;;;5.63;2.67;;;22.00;89.80;;;;;;4172223;28;20088;-68
2022/05/17 08:16:04;;;;;;;9.43;2.83;;;21.90;89.70;;;;;;4171098;28;20102;-68
2022/05/17 08:18:06;;;;;;;4.38;2.80;;;21.90;89.70;;;;;;4172425;28;20094;-69
2022/05/17 08:20:09;;;;;;;7.57;2.65;;;21.80;89.90;;;;;;4171156;28;20032;-68
2022/05/17 08:22:13;;;;;;;7.07;2.83;;;21.90;90.00;;;;;;4172372;28;20028;-69
2022/05/17 08:24:14;;;;;;;6.53;2.85;;;21.80;90.00;;;;;;4170250;28;20045;-69
2022/05/17 08:28:35;;;;;;;6.45;3.17;;;21.80;90.10;;;;;;4171407;28;20032;-68
2022/05/17 08:30:38;;;;;;;7.65;2.75;;;21.90;90.20;;;;;;4171005;28;20025;-68
2022/05/17 08:33:14;;;;;;;6.47;3.13;;;22.00;90.20;;;;;;4171203;28;20071;-69
2022/05/17 08:35:16;;;;;;;5.75;3.03;;;22.00;90.30;;;;;;4171856;28;20041;-67
2022/05/17 08:37:17;;;;;;;6.22;2.75;;;22.10;90.10;;;;;;4170915;28;20430;-68
2022/05/17 08:39:18;;;;;;;7.38;2.85;;;22.20;90.10;;;;;;4171825;28;20115;-68
2022/05/17 08:41:36;;;;;;;6.85;2.42;;;22.20;90.00;;;;;;4171211;28;20825;-68
2022/05/17 08:43:59;;;;;;;5.38;2.70;;;22.20;90.00;;;;;;4172236;28;20095;-68
2022/05/17 08:46:39;;;;;;;3.20;2.35;;;22.30;90.10;;;;;;4170895;28;20106;-68
2022/05/17 08:48:53;;;;;;;4.15;3.00;;;22.10;90.00;;;;;;4169788;28;20466;-68
2022/05/17 08:50:54;;;;;;;5.28;2.65;;;22.00;90.20;;;;;;4171215;28;20029;-67
2022/05/17 08:52:56;;;;;;;7.50;2.08;;;22.00;90.20;;;;;;4171847;28;20029;-68
2022/05/17 08:55:00;;;;;;;5.55;2.45;;;21.90;90.30;;;;;;4171022;28;20033;-68
2022/05/17 08:57:24;;;;;;;5.38;2.60;;;21.90;90.40;;;;;;4171970;28;20029;-68
2022/05/17 08:59:27;;;;;;;4.25;3.13;;;21.80;90.50;;;;;;4171181;28;21009;-68
2022/05/17 09:01:40;;;;;;;9.75;3.15;;;21.80;90.60;;;;;;4171799;28;20032;-70
2022/05/17 09:03:47;;;;;;;4.03;2.55;;;21.80;91.70;;;;;;4171409;28;20079;-68
2022/05/17 09:06:13;;;;;;;8.30;2.83;;;21.80;91.40;;;;;;4172067;28;20029;-68
2022/05/17 09:08:24;;;;;;;2.85;2.20;;;21.80;91.70;;;;;;4171557;28;20079;-68
2022/05/17 09:10:30;;;;;;;;;;;21.70;91.60;;;;;;4172478;28;20094;-68
2022/05/17 09:12:40;;;;;;;47.80;7.85;;;21.60;92.60;;;;;;4170507;28;19924;-69
2022/05/17 09:14:46;;;;;;;25.48;5.18;;;21.40;92.60;;;;;;4172061;28;20365;-70
2022/05/17 09:17:05;;;;;;;11.60;2.97;;;21.40;92.40;;;;;;4170922;28;20091;-68
2022/05/17 09:19:08;;;;;;;11.95;3.30;;;21.40;93.00;;;;;;4171719;28;20037;-68
2022/05/17 09:21:31;;;;;;;9.95;3.60;;;21.10;94.10;;;;;;4170810;28;20087;-69
2022/05/17 09:23:32;;;;;;;7.82;3.60;;;20.80;96.30;;;;;;4172066;28;20041;-68
2022/05/17 09:25:50;;;;;;;6.13;3.70;;;20.50;95.80;;;;;;4170572;28;20029;-68
2022/05/17 09:27:53;;;;;;;4.90;3.28;;;20.30;98.70;;;;;;4171977;28;20036;-68
2022/05/17 09:30:22;;;;;;;5.80;3.20;;;20.20;97.40;;;;;;4171623;28;20067;-68
2022/05/17 09:32:29;;;;;;;4.57;2.83;;;20.00;98.00;;;;;;4169689;28;20966;-69
2022/05/17 09:34:37;;;;;;;4.05;2.08;;;19.80;98.00;;;;;;4170859;28;20025;-70
2022/05/17 09:36:43;;;;;;;7.18;3.30;;;19.70;98.40;;;;;;4174807;28;20079;-69
2022/05/17 09:38:47;;;;;;;24.75;10.15;;;19.50;99.10;;;;;;4174270;28;20143;-69
2022/05/17 09:40:51;;;;;;;9.73;3.10;;;19.40;99.90;;;;;;4172616;28;20452;-67
2022/05/17 09:42:58;;;;;;;8.20;2.92;;;19.40;99.90;;;;;;4174126;28;20045;-69
2022/05/17 09:45:07;;;;;;;6.88;3.00;;;19.30;99.90;;;;;;4174896;28;20181;-69
2022/05/17 09:47:35;;;;;;;6.10;2.70;;;19.20;99.90;;;;;;4173471;28;20025;-69
2022/05/17 09:54:31;;;;;;;5.93;2.90;;;18.70;99.90;;;;;;4175294;28;20579;-68
2022/05/17 09:56:32;;;;;;;6.50;2.97;;;18.50;99.90;;;;;;4175631;28;20040;-68
2022/05/17 09:58:40;;;;;;;6.55;3.53;;;18.40;99.90;;;;;;4174026;28;20041;-68
2022/05/17 10:00:46;;;;;;;7.05;3.55;;;18.40;99.90;;;;;;4174149;28;20125;-68
2022/05/17 10:03:19;;;;;;;6.57;3.90;;;18.20;99.90;;;;;;4173776;28;20079;-68
2022/05/17 10:05:27;;;;;;;6.38;3.45;;;18.20;99.90;;;;;;4174219;28;20092;-68
2022/05/17 10:07:30;;;;;;;10.82;4.00;;;18.10;99.90;;;;;;4173524;28;20037;-67
2022/05/17 10:09:34;;;;;;;6.65;3.85;;;18.10;99.90;;;;;;4173823;28;20071;-68
2022/05/17 10:11:48;;;;;;;15.23;4.40;;;18.10;99.90;;;;;;4173383;28;20052;-69
2022/05/17 10:14:14;;;;;;;8.82;3.70;;;18.10;99.90;;;;;;4171916;28;20451;-67
2022/05/17 10:16:44;;;;;;;12.52;5.50;;;18.20;99.90;;;;;;4172944;28;20056;-68
2022/05/17 10:18:59;;;;;;;5.78;4.10;;;18.30;99.90;;;;;;4173869;28;20025;-70
2022/05/17 10:21:10;;;;;;;8.98;4.45;;;18.40;99.90;;;;;;4173951;28;20021;-70
2022/05/17 10:23:35;;;;;;;8.60;3.38;;;18.40;99.90;;;;;;4175725;28;20025;-69
2022/05/17 10:25:51;;;;;;;6.10;3.85;;;18.40;99.90;;;;;;4173469;28;20032;-67
2022/05/17 10:28:17;;;;;;;4.60;3.03;;;18.40;99.90;;;;;;4174219;28;20045;-68
2022/05/17 10:30:52;;;;;;;8.80;3.50;;;18.30;99.90;;;;;;4152552;28;20129;-68
2022/05/17 10:33:19;;;;;;;6.53;3.70;;;18.40;99.90;;;;;;4173673;28;20040;-68
2022/05/17 10:35:42;;;;;;;10.60;3.38;;;18.50;99.90;;;;;;4172625;28;20098;-67
2022/05/17 10:37:52;;;;;;;5.38;3.00;;;18.50;99.90;;;;;;4173328;28;20098;-69
2022/05/17 10:40:06;;;;;;;8.85;3.75;;;18.60;99.90;;;;;;4173274;28;20025;-69
2022/05/17 10:42:09;;;;;;;3.55;3.15;;;18.50;99.90;;;;;;4173408;28;20051;-68
2022/05/17 10:44:16;;;;;;;5.22;3.40;;;18.50;99.90;;;;;;4173298;28;20029;-68
2022/05/17 10:46:27;;;;;;;5.28;3.10;;;18.50;99.90;;;;;;4172284;28;20033;-70
2022/05/17 10:48:29;;;;;;;4.45;2.88;;;18.40;99.90;;;;;;4173280;28;20107;-67
2022/05/17 10:50:50;;;;;;;9.23;3.63;;;18.40;99.90;;;;;;4172864;28;20044;-67
2022/05/17 10:53:01;;;;;;;6.07;3.28;;;18.50;99.90;;;;;;4173219;28;20456;-68
2022/05/17 10:55:23;;;;;;;8.88;3.30;;;18.40;99.90;;;;;;4172938;28;20079;-67
2022/05/17 10:57:29;;;;;;;4.60;3.03;;;18.50;99.90;;;;;;4173257;28;20450;-68
2022/05/17 10:59:58;;;;;;;6.90;3.30;;;18.50;99.90;;;;;;4172793;28;20044;-68
2022/05/17 11:02:15;;;;;;;3.45;2.80;;;18.40;99.90;;;;;;4173404;28;20059;-68
2022/05/17 11:04:25;;;;;;;3.92;2.88;;;18.30;99.90;;;;;;4172225;28;20082;-68
2022/05/17 11:06:48;;;;;;;6.22;3.28;;;18.10;99.90;;;;;;4172788;28;20054;-68
2022/05/17 11:09:19;;;;;;;5.10;3.35;;;18.00;99.90;;;;;;4171821;28;20489;-68
2022/05/17 11:11:23;;;;;;;4.32;2.97;;;18.00;99.90;;;;;;4172536;28;20114;-68